Time;durP1;ratioP1;P1;durP2;ratioP2;P2;SDS_P1;SDS_P2;PMS_P1;PMS_P2;Temp;Humidity;BMP_temperature;BMP_pressure;BME280_temperature;BME280_humidity;BME280_pressure;Samples;Min_cycle;Max_cycle;Signal;HPM_P1;HPM_P2
2020/12/18 00:00:49;;;;;;;40.28;26.85;;;4.00;84.10;;;;;;5013409;28;20054;-73
2020/12/18 00:03:16;;;;;;;41.17;25.98;;;3.90;84.00;;;;;;5011482;28;20049;-72
2020/12/18 00:05:44;;;;;;;42.55;26.27;;;3.80;83.70;;;;;;5005501;28;20050;-73
2020/12/18 00:08:11;;;;;;;40.97;27.05;;;3.80;83.60;;;;;;5010849;28;20046;-73
2020/12/18 00:10:38;;;;;;;45.55;28.17;;;3.70;83.40;;;;;;5012292;28;20063;-74
2020/12/18 00:13:06;;;;;;;42.83;25.92;;;3.70;83.30;;;;;;5012177;28;20054;-73
2020/12/18 00:15:33;;;;;;;39.10;26.45;;;3.60;83.20;;;;;;5010257;28;20056;-73
2020/12/18 00:18:00;;;;;;;38.35;27.20;;;3.60;83.30;;;;;;5012573;28;20076;-72
2020/12/18 00:20:27;;;;;;;37.03;27.23;;;3.50;83.30;;;;;;5011539;28;20391;-72
2020/12/18 00:22:54;;;;;;;43.60;27.50;;;3.50;83.20;;;;;;5012016;28;20045;-73
2020/12/18 00:25:21;;;;;;;39.13;27.35;;;3.50;83.20;;;;;;5007863;28;20467;-72
2020/12/18 00:27:48;;;;;;;36.35;27.05;;;3.40;83.00;;;;;;5012335;28;20129;-73
2020/12/18 00:30:16;;;;;;;41.05;28.58;;;3.30;82.90;;;;;;5009969;28;20054;-73
2020/12/18 00:32:43;;;;;;;39.60;26.85;;;3.30;82.90;;;;;;5011702;28;20100;-73
2020/12/18 00:35:11;;;;;;;38.00;26.50;;;3.20;82.70;;;;;;5008231;28;20053;-72
2020/12/18 00:37:39;;;;;;;39.95;27.63;;;3.20;82.50;;;;;;5011061;28;20054;-73
2020/12/18 00:40:07;;;;;;;38.80;26.35;;;3.20;82.60;;;;;;5009841;28;20053;-72
2020/12/18 00:42:34;;;;;;;46.05;27.63;;;3.20;82.60;;;;;;5010202;28;20046;-72
2020/12/18 00:45:01;;;;;;;34.55;24.80;;;3.20;82.70;;;;;;5008654;28;20503;-73
2020/12/18 00:47:28;;;;;;;35.88;26.25;;;3.20;82.60;;;;;;5009335;28;20060;-72
2020/12/18 00:49:55;;;;;;;38.88;27.17;;;3.30;83.20;;;;;;5014211;28;20052;-72
2020/12/18 00:52:25;;;;;;;39.60;26.80;;;3.20;83.20;;;;;;5009513;28;20042;-71
2020/12/18 00:54:52;;;;;;;40.30;26.92;;;3.20;83.30;;;;;;5007727;28;20165;-71
2020/12/18 00:57:19;;;;;;;42.33;28.90;;;3.20;83.20;;;;;;5008419;28;20397;-72
2020/12/18 00:59:45;;;;;;;43.50;27.98;;;3.20;83.40;;;;;;5012009;28;20049;-72
2020/12/18 01:02:12;;;;;;;44.90;29.10;;;3.20;83.60;;;;;;5012807;28;20057;-72
2020/12/18 01:04:40;;;;;;;49.33;28.85;;;3.30;83.70;;;;;;5008344;28;20042;-72
2020/12/18 01:07:07;;;;;;;50.38;31.98;;;3.50;84.10;;;;;;5007019;28;20053;-71
2020/12/18 01:09:34;;;;;;;47.17;31.00;;;3.70;84.70;;;;;;5010468;28;20508;-71
2020/12/18 01:12:00;;;;;;;48.72;31.00;;;3.60;84.80;;;;;;5010280;28;20419;-72
2020/12/18 01:14:27;;;;;;;49.42;31.90;;;3.60;85.00;;;;;;5006144;28;20075;-72
2020/12/18 01:16:55;;;;;;;43.08;29.40;;;3.60;84.90;;;;;;5009910;28;20447;-72
2020/12/18 01:19:23;;;;;;;45.00;30.45;;;3.50;85.20;;;;;;5010368;28;20508;-73
2020/12/18 01:21:50;;;;;;;54.28;32.33;;;3.40;85.00;;;;;;5009644;28;20042;-73
2020/12/18 01:24:19;;;;;;;55.40;31.83;;;3.50;84.80;;;;;;5010754;28;20046;-72
2020/12/18 01:26:47;;;;;;;51.60;32.17;;;3.50;84.90;;;;;;5009379;28;20158;-72
2020/12/18 01:29:14;;;;;;;45.97;32.22;;;3.60;84.80;;;;;;5009710;28;20053;-72
2020/12/18 01:31:41;;;;;;;47.03;30.38;;;3.60;85.10;;;;;;5010884;28;20072;-72
2020/12/18 01:34:08;;;;;;;45.90;29.85;;;3.60;85.40;;;;;;5010541;28;20073;-72
2020/12/18 01:36:35;;;;;;;43.38;29.02;;;3.60;84.90;;;;;;5008593;28;20057;-72
2020/12/18 01:39:03;;;;;;;46.30;30.45;;;3.50;85.00;;;;;;5011018;28;20042;-72
2020/12/18 01:41:30;;;;;;;50.83;30.85;;;3.60;84.80;;;;;;5010876;28;20128;-72
2020/12/18 01:43:57;;;;;;;46.90;30.05;;;3.50;85.50;;;;;;5007898;28;20049;-72
2020/12/18 01:46:29;;;;;;;44.63;29.40;;;3.60;85.00;;;;;;5009559;28;20046;-73
2020/12/18 01:48:57;;;;;;;44.95;30.38;;;3.60;85.50;;;;;;5009604;28;20413;-72
2020/12/18 01:51:30;;;;;;;50.17;30.77;;;3.60;85.40;;;;;;5010716;28;20065;-72
2020/12/18 01:53:57;;;;;;;49.47;30.25;;;3.50;85.30;;;;;;5010469;28;20049;-72
2020/12/18 01:56:25;;;;;;;46.25;28.85;;;3.40;85.20;;;;;;5009144;28;20049;-72
2020/12/18 01:58:53;;;;;;;45.05;30.23;;;3.40;85.10;;;;;;5011088;28;20137;-73
2020/12/18 02:01:19;;;;;;;43.45;29.17;;;3.40;85.30;;;;;;5010656;28;20327;-73
2020/12/18 02:03:47;;;;;;;48.17;29.42;;;3.30;85.40;;;;;;5010704;28;20057;-73
2020/12/18 02:06:16;;;;;;;52.28;29.98;;;3.40;84.90;;;;;;5009465;28;20046;-72
2020/12/18 02:08:44;;;;;;;41.63;28.00;;;3.30;85.30;;;;;;5010410;28;20141;-73
2020/12/18 02:11:12;;;;;;;47.58;29.65;;;3.40;84.90;;;;;;5009436;28;20046;-73
2020/12/18 02:13:40;;;;;;;43.78;29.75;;;3.30;85.20;;;;;;5010219;28;20049;-73
2020/12/18 02:16:07;;;;;;;46.10;29.52;;;3.40;85.00;;;;;;5007751;28;20393;-72
2020/12/18 02:18:34;;;;;;;46.28;28.88;;;3.20;85.00;;;;;;5010362;28;20061;-72
2020/12/18 02:21:03;;;;;;;47.78;28.85;;;3.40;85.30;;;;;;5009184;28;20046;-73
2020/12/18 02:23:31;;;;;;;47.35;30.90;;;3.40;85.10;;;;;;5010344;28;20765;-72
2020/12/18 02:26:06;;;;;;;50.28;30.20;;;3.40;85.30;;;;;;5009804;28;20108;-72
2020/12/18 02:28:36;;;;;;;46.28;28.75;;;3.30;85.40;;;;;;5009996;28;20072;-72
2020/12/18 02:31:03;;;;;;;46.03;29.58;;;3.30;85.00;;;;;;5010631;28;20049;-72
2020/12/18 02:33:31;;;;;;;45.97;28.77;;;3.20;85.20;;;;;;5011326;28;20503;-72
2020/12/18 02:35:59;;;;;;;47.67;28.13;;;3.20;84.80;;;;;;5004866;28;20049;-73
2020/12/18 02:38:26;;;;;;;46.25;30.05;;;3.20;84.80;;;;;;5011033;28;20423;-71
2020/12/18 02:40:53;;;;;;;48.40;31.48;;;3.00;85.50;;;;;;5011537;28;20052;-72
2020/12/18 02:43:21;;;;;;;50.55;30.40;;;2.80;85.40;;;;;;5004933;28;20492;-72
2020/12/18 02:45:48;;;;;;;47.92;29.10;;;2.70;85.30;;;;;;5011767;28;20054;-72
2020/12/18 02:48:16;;;;;;;46.03;30.25;;;2.70;84.80;;;;;;5013654;28;20578;-73
2020/12/18 02:50:43;;;;;;;40.72;27.90;;;2.70;84.70;;;;;;5012930;28;20053;-73
2020/12/18 02:53:13;;;;;;;43.35;28.23;;;2.60;84.80;;;;;;5013855;28;20046;-72
2020/12/18 02:55:41;;;;;;;40.83;27.60;;;2.60;84.70;;;;;;5012929;28;20046;-72
2020/12/18 02:58:09;;;;;;;39.95;27.63;;;2.50;84.70;;;;;;5013282;28;20045;-72
2020/12/18 03:00:37;;;;;;;43.42;28.20;;;2.50;84.40;;;;;;5014597;28;20060;-73
2020/12/18 03:03:04;;;;;;;44.10;28.58;;;2.50;84.00;;;;;;5011462;28;20053;-72
2020/12/18 03:05:31;;;;;;;46.90;29.42;;;2.70;84.10;;;;;;5014091;28;20412;-74
2020/12/18 03:07:58;;;;;;;50.65;31.05;;;2.90;84.40;;;;;;5014054;28;20526;-71
2020/12/18 03:10:25;;;;;;;43.70;30.25;;;2.80;84.20;;;;;;5014514;28;20128;-71
2020/12/18 03:12:52;;;;;;;39.75;28.52;;;2.70;84.60;;;;;;5014459;28;20046;-71
2020/12/18 03:15:19;;;;;;;43.70;29.35;;;2.60;84.80;;;;;;5013722;28;20518;-71
2020/12/18 03:17:47;;;;;;;45.67;29.45;;;2.70;84.50;;;;;;5013399;28;20054;-72
2020/12/18 03:20:14;;;;;;;40.63;29.13;;;2.60;84.70;;;;;;5014069;28;20133;-74
2020/12/18 03:22:45;;;;;;;44.67;28.58;;;2.60;84.80;;;;;;5014074;28;20536;-72
2020/12/18 03:25:12;;;;;;;41.50;29.48;;;2.70;84.70;;;;;;5013881;28;20116;-73
2020/12/18 03:27:43;;;;;;;51.85;32.13;;;3.10;84.20;;;;;;5013532;28;20097;-71
2020/12/18 03:30:10;;;;;;;49.30;30.98;;;3.20;84.90;;;;;;5013819;28;20050;-71
2020/12/18 03:32:37;;;;;;;48.85;31.90;;;3.20;85.40;;;;;;5013670;28;20042;-71
2020/12/18 03:35:05;;;;;;;51.10;32.72;;;3.20;85.30;;;;;;5013617;28;20048;-70
2020/12/18 03:37:32;;;;;;;48.22;32.38;;;3.30;85.40;;;;;;5013119;28;20050;-71
2020/12/18 03:39:59;;;;;;;51.30;32.03;;;3.40;85.40;;;;;;5013863;28;20416;-70
2020/12/18 03:42:26;;;;;;;50.45;31.50;;;3.70;85.40;;;;;;5014034;28;20046;-71
2020/12/18 03:44:53;;;;;;;50.03;31.45;;;3.60;86.10;;;;;;5013704;28;20392;-71
2020/12/18 03:47:20;;;;;;;50.95;30.77;;;3.70;86.40;;;;;;5012413;28;20076;-71
2020/12/18 03:49:47;;;;;;;47.05;30.58;;;3.80;86.70;;;;;;5013663;28;20057;-73
2020/12/18 03:52:14;;;;;;;47.15;28.58;;;3.80;87.00;;;;;;5013470;28;20050;-71
2020/12/18 03:54:41;;;;;;;44.75;28.17;;;3.90;87.20;;;;;;5010105;28;20049;-72
2020/12/18 03:57:08;;;;;;;48.25;29.42;;;4.00;87.30;;;;;;5011987;28;20048;-72
2020/12/18 03:59:35;;;;;;;45.97;29.67;;;4.10;87.40;;;;;;5013234;28;20672;-71
2020/12/18 04:02:02;;;;;;;47.60;28.98;;;4.20;87.70;;;;;;5013656;28;20052;-72
2020/12/18 04:04:29;;;;;;;46.13;28.02;;;4.20;87.80;;;;;;5012975;28;20096;-71
2020/12/18 04:06:56;;;;;;;42.22;27.92;;;4.10;87.90;;;;;;5012276;28;20052;-71
2020/12/18 04:09:23;;;;;;;42.58;27.35;;;4.10;87.90;;;;;;5005528;28;20051;-71
2020/12/18 04:11:50;;;;;;;41.15;25.33;;;4.20;88.00;;;;;;5005461;28;20046;-73
2020/12/18 04:14:17;;;;;;;41.03;26.40;;;4.20;87.90;;;;;;5013122;28;20077;-71
2020/12/18 04:16:44;;;;;;;39.80;24.80;;;4.20;87.90;;;;;;5012271;28;20060;-72
2020/12/18 04:19:11;;;;;;;39.70;26.13;;;4.20;87.90;;;;;;5012686;28;20419;-71
2020/12/18 04:21:38;;;;;;;38.67;25.33;;;4.20;87.80;;;;;;5012904;28;20054;-73
2020/12/18 04:24:05;;;;;;;36.58;22.92;;;4.20;87.80;;;;;;5012421;28;20134;-70
2020/12/18 04:26:32;;;;;;;37.90;24.50;;;4.10;87.70;;;;;;5011589;28;20050;-70
2020/12/18 04:28:59;;;;;;;36.75;23.20;;;4.10;87.60;;;;;;5012883;28;20054;-70
2020/12/18 04:31:26;;;;;;;34.50;22.23;;;4.10;87.60;;;;;;5012457;28;20109;-71
2020/12/18 04:33:53;;;;;;;37.92;23.38;;;4.00;87.40;;;;;;5012508;28;20053;-70
2020/12/18 04:36:19;;;;;;;31.40;21.80;;;3.90;87.20;;;;;;4997441;28;20071;-71
2020/12/18 04:38:46;;;;;;;25.27;18.83;;;3.40;85.90;;;;;;5012656;28;20050;-71
2020/12/18 04:41:13;;;;;;;27.88;19.48;;;2.90;85.10;;;;;;5012752;28;20052;-72
2020/12/18 04:43:41;;;;;;;29.35;19.52;;;2.80;84.80;;;;;;5010932;28;20050;-74
2020/12/18 04:46:10;;;;;;;26.30;18.77;;;2.60;84.50;;;;;;5011559;28;20048;-71
2020/12/18 04:48:37;;;;;;;34.25;18.27;;;2.50;84.40;;;;;;5012721;28;20053;-73
2020/12/18 04:51:04;;;;;;;25.67;19.45;;;2.50;84.20;;;;;;5007391;28;20054;-70
2020/12/18 04:53:39;;;;;;;33.60;20.75;;;2.40;84.00;;;;;;5012475;28;20145;-70
2020/12/18 04:56:10;;;;;;;36.70;21.08;;;2.20;83.70;;;;;;5007529;28;20050;-71
2020/12/18 04:58:37;;;;;;;43.53;21.80;;;2.00;83.40;;;;;;5012711;28;20049;-70
2020/12/18 05:01:06;;;;;;;50.08;20.13;;;1.90;83.30;;;;;;5012450;28;20053;-70
2020/12/18 05:03:35;;;;;;;39.20;20.35;;;1.90;83.30;;;;;;5012442;28;20053;-71
2020/12/18 05:06:05;;;;;;;44.00;19.88;;;1.80;83.10;;;;;;5011393;28;20089;-70
2020/12/18 05:08:32;;;;;;;51.10;23.33;;;1.70;83.00;;;;;;5011773;28;20045;-71
2020/12/18 05:11:14;;;;;;;145.77;29.35;;;1.60;82.90;;;;;;5010248;28;20823;-71
2020/12/18 05:13:41;;;;;;;36.65;22.23;;;1.60;82.90;;;;;;5007870;28;20484;-71
2020/12/18 05:16:09;;;;;;;32.08;20.98;;;1.60;82.90;;;;;;5011376;28;20054;-71
2020/12/18 05:18:35;;;;;;;35.00;22.27;;;1.70;83.00;;;;;;5009287;28;20046;-72
2020/12/18 05:21:02;;;;;;;31.77;22.30;;;1.70;83.00;;;;;;5011985;28;20056;-70
2020/12/18 05:23:29;;;;;;;34.63;23.85;;;1.70;83.20;;;;;;5012220;28;20042;-70
2020/12/18 05:25:56;;;;;;;36.33;24.13;;;1.60;82.90;;;;;;5010765;28;20485;-70
2020/12/18 05:28:23;;;;;;;37.03;23.25;;;1.70;83.00;;;;;;5011900;28;20495;-70
2020/12/18 05:30:55;;;;;;;34.22;23.15;;;1.60;82.90;;;;;;5011790;28;20049;-73
2020/12/18 05:33:26;;;;;;;34.33;23.20;;;1.70;83.00;;;;;;5007470;28;20049;-74
2020/12/18 05:35:54;;;;;;;33.05;23.00;;;1.90;83.20;;;;;;4999777;28;20085;-73
2020/12/18 05:38:23;;;;;;;37.17;25.30;;;1.90;83.40;;;;;;5011940;28;20061;-71
2020/12/18 05:40:50;;;;;;;37.08;24.42;;;1.90;83.60;;;;;;5011920;28;20050;-72
2020/12/18 05:43:17;;;;;;;41.08;24.48;;;1.90;83.80;;;;;;5011561;28;20042;-73
2020/12/18 05:45:44;;;;;;;34.92;24.33;;;1.80;83.60;;;;;;5011052;28;20428;-71
2020/12/18 05:48:14;;;;;;;34.95;23.77;;;1.90;83.70;;;;;;5011145;28;20045;-70
2020/12/18 05:50:42;;;;;;;40.92;25.70;;;2.00;83.60;;;;;;5009946;28;20049;-71
2020/12/18 05:53:11;;;;;;;38.45;25.05;;;2.10;83.60;;;;;;5011468;28;20042;-71
2020/12/18 05:55:41;;;;;;;37.63;25.15;;;2.30;83.80;;;;;;4998428;28;20064;-71
2020/12/18 05:58:12;;;;;;;40.05;26.98;;;2.40;84.20;;;;;;5011218;28;20527;-71
2020/12/18 06:00:41;;;;;;;38.85;25.60;;;2.50;84.40;;;;;;5011690;28;20050;-71
2020/12/18 06:03:10;;;;;;;41.55;26.90;;;2.60;84.50;;;;;;5011702;28;20403;-71
2020/12/18 06:05:38;;;;;;;43.90;25.88;;;2.70;84.80;;;;;;5010689;28;20056;-72
2020/12/18 06:08:15;;;;;;;42.50;27.15;;;2.70;84.90;;;;;;5011426;28;20056;-72
2020/12/18 06:10:42;;;;;;;41.20;27.00;;;2.80;85.10;;;;;;5009355;28;20459;-72
2020/12/18 06:13:09;;;;;;;41.78;26.30;;;2.90;85.10;;;;;;5002131;28;20045;-73
2020/12/18 06:15:36;;;;;;;41.72;25.42;;;2.90;85.20;;;;;;5010533;28;20052;-71
2020/12/18 06:18:05;;;;;;;40.50;26.05;;;2.90;85.40;;;;;;5011219;28;20046;-72
2020/12/18 06:20:35;;;;;;;41.40;26.63;;;3.00;85.50;;;;;;5015043;28;20050;-73
2020/12/18 06:23:03;;;;;;;39.65;24.95;;;3.00;85.30;;;;;;5015592;28;20470;-72
2020/12/18 06:25:31;;;;;;;39.30;24.25;;;3.10;85.60;;;;;;5014851;28;20054;-71
2020/12/18 06:27:59;;;;;;;40.10;24.10;;;3.10;85.80;;;;;;5015915;28;20075;-72
2020/12/18 06:30:27;;;;;;;39.58;25.75;;;3.10;85.80;;;;;;5015598;28;20060;-72
2020/12/18 06:32:54;;;;;;;41.92;23.35;;;3.20;85.50;;;;;;5016425;28;20046;-72
2020/12/18 06:35:32;;;;;;;34.63;22.70;;;3.20;85.60;;;;;;5016363;28;20056;-72
2020/12/18 06:38:23;;;;;;;37.10;22.67;;;3.10;85.70;;;;;;5005129;28;20496;-72
2020/12/18 06:40:50;;;;;;;40.17;22.85;;;3.10;85.50;;;;;;5016477;28;20054;-72
2020/12/18 06:43:36;;;;;;;35.28;22.70;;;3.20;85.40;;;;;;5015651;28;20054;-72
2020/12/18 06:46:03;;;;;;;;;;;3.00;85.60;;;;;;5013926;28;20057;-72
2020/12/18 06:48:31;;;;;;;36.65;23.83;;;3.10;85.40;;;;;;5015797;28;19921;-73
2020/12/18 06:50:58;;;;;;;37.38;23.80;;;3.20;85.80;;;;;;5016723;28;20081;-72
2020/12/18 06:53:25;;;;;;;40.97;24.23;;;3.10;85.90;;;;;;5017154;28;20042;-72
2020/12/18 06:55:52;;;;;;;39.95;24.83;;;3.10;86.00;;;;;;5015661;28;20056;-71
2020/12/18 06:58:23;;;;;;;36.53;23.83;;;3.10;86.00;;;;;;5000366;28;20411;-71
2020/12/18 07:00:55;;;;;;;34.95;23.55;;;3.20;85.90;;;;;;5015005;28;20078;-71
2020/12/18 07:03:32;;;;;;;44.10;26.15;;;3.00;86.20;;;;;;5015028;28;20044;-72
2020/12/18 07:06:02;;;;;;;42.88;24.92;;;2.90;86.20;;;;;;5011795;28;20057;-71
2020/12/18 07:08:31;;;;;;;38.45;24.75;;;2.70;85.90;;;;;;5017171;28;20046;-72
2020/12/18 07:11:06;;;;;;;40.22;24.85;;;2.60;85.70;;;;;;5017330;28;20062;-72
2020/12/18 07:13:33;;;;;;;34.88;22.95;;;2.50;85.60;;;;;;5011196;28;20212;-73
2020/12/18 07:16:06;;;;;;;34.17;22.00;;;2.40;85.40;;;;;;5015581;28;20049;-71
2020/12/18 07:18:35;;;;;;;33.03;21.75;;;2.20;85.20;;;;;;5016655;28;20518;-72
2020/12/18 07:21:05;;;;;;;40.45;24.17;;;2.10;84.90;;;;;;5016051;28;20083;-72
2020/12/18 07:23:33;;;;;;;34.03;21.75;;;2.00;84.30;;;;;;5016220;28;20068;-72
2020/12/18 07:26:02;;;;;;;39.90;24.20;;;1.80;83.90;;;;;;5013520;28;20061;-71
2020/12/18 07:28:30;;;;;;;39.08;23.77;;;1.80;83.70;;;;;;5007932;28;20092;-72
2020/12/18 07:30:59;;;;;;;33.67;22.55;;;1.80;83.60;;;;;;5013099;28;20057;-72
2020/12/18 07:33:26;;;;;;;34.00;22.33;;;1.90;83.80;;;;;;5013781;28;20053;-72
2020/12/18 07:35:55;;;;;;;35.45;23.25;;;2.00;84.00;;;;;;5012675;28;20049;-71
2020/12/18 07:38:23;;;;;;;36.97;23.25;;;2.10;84.00;;;;;;5014124;28;20081;-73
2020/12/18 07:40:52;;;;;;;31.65;22.10;;;2.10;84.10;;;;;;5010497;28;20411;-71
2020/12/18 07:43:22;;;;;;;35.97;23.00;;;2.10;84.20;;;;;;5014039;28;20046;-72
2020/12/18 07:45:53;;;;;;;38.83;23.85;;;2.20;84.30;;;;;;5012389;28;20053;-70
2020/12/18 07:48:22;;;;;;;35.08;24.17;;;2.30;84.40;;;;;;5013752;28;20108;-70
2020/12/18 07:51:00;;;;;;;34.55;25.20;;;2.40;84.50;;;;;;5013384;28;20050;-72
2020/12/18 07:53:28;;;;;;;37.95;24.70;;;2.50;84.60;;;;;;5013625;28;20057;-71
2020/12/18 07:56:08;;;;;;;40.42;27.45;;;2.70;84.90;;;;;;5012801;28;20053;-72
2020/12/18 07:58:46;;;;;;;43.90;26.83;;;2.90;85.10;;;;;;5013884;28;20049;-71
2020/12/18 08:01:15;;;;;;;47.70;28.38;;;3.20;85.50;;;;;;5007290;28;20056;-73
2020/12/18 08:03:45;;;;;;;44.40;27.35;;;3.40;85.90;;;;;;5013184;28;20049;-70
2020/12/18 08:06:21;;;;;;;43.95;27.63;;;3.60;86.10;;;;;;5013044;28;20068;-72
2020/12/18 08:08:53;;;;;;;43.28;25.92;;;3.80;86.40;;;;;;5011924;28;20057;-71
2020/12/18 08:11:21;;;;;;;40.53;25.55;;;4.00;86.50;;;;;;4997015;28;20068;-71
2020/12/18 08:13:49;;;;;;;37.55;23.65;;;4.00;86.30;;;;;;5012646;28;20064;-71
2020/12/18 08:16:18;;;;;;;35.63;23.13;;;4.10;86.20;;;;;;5012009;28;20052;-72
2020/12/18 08:18:48;;;;;;;35.15;22.90;;;4.20;86.30;;;;;;5005458;28;20053;-71
2020/12/18 08:21:18;;;;;;;38.08;21.77;;;4.40;86.30;;;;;;5013326;28;20400;-76
2020/12/18 08:23:50;;;;;;;35.45;23.15;;;4.40;85.50;;;;;;5012662;28;20096;-72
2020/12/18 08:26:19;;;;;;;31.52;20.55;;;4.60;85.60;;;;;;5012042;28;20050;-71
2020/12/18 08:28:46;;;;;;;32.35;21.33;;;4.60;85.40;;;;;;5012835;28;20077;-73
2020/12/18 08:31:15;;;;;;;29.02;19.75;;;4.70;84.60;;;;;;5012517;28;20053;-71
2020/12/18 08:33:53;;;;;;;29.67;18.42;;;4.70;84.30;;;;;;5012191;28;20053;-73
2020/12/18 08:36:23;;;;;;;28.13;18.95;;;4.90;83.60;;;;;;5012274;28;20105;-72
2020/12/18 08:39:01;;;;;;;27.95;17.95;;;4.90;82.00;;;;;;5012793;28;20133;-78
2020/12/18 08:41:38;;;;;;;26.02;18.17;;;5.00;82.00;;;;;;5012907;28;20046;-73
2020/12/18 08:44:06;;;;;;;25.63;17.33;;;5.00;80.20;;;;;;5012456;28;20045;-74
2020/12/18 08:46:35;;;;;;;31.40;17.83;;;5.10;79.00;;;;;;5011799;28;20060;-72
2020/12/18 08:49:10;;;;;;;33.20;17.85;;;5.00;79.00;;;;;;5012487;28;20057;-75
2020/12/18 08:51:38;;;;;;;23.75;16.95;;;5.20;77.90;;;;;;5012336;28;20045;-71
2020/12/18 08:54:24;;;;;;;31.05;19.58;;;5.20;75.90;;;;;;5012008;28;20419;-72
2020/12/18 08:57:23;;;;;;;27.90;18.02;;;5.30;77.50;;;;;;5008508;28;20046;-72
2020/12/18 09:00:01;;;;;;;24.48;17.45;;;5.30;75.60;;;;;;5006713;28;20046;-72
2020/12/18 09:02:30;;;;;;;25.73;16.58;;;5.30;75.40;;;;;;5012455;28;20085;-74
2020/12/18 09:05:22;;;;;;;23.73;15.32;;;5.30;74.50;;;;;;5010333;28;20136;-74
2020/12/18 09:07:51;;;;;;;21.77;16.63;;;5.20;72.20;;;;;;5011598;28;20085;-72
2020/12/18 09:10:39;;;;;;;24.00;15.73;;;5.30;72.70;;;;;;5011098;28;20049;-71
2020/12/18 09:13:12;;;;;;;21.02;14.88;;;5.30;70.20;;;;;;5010175;28;20147;-72
2020/12/18 09:15:39;;;;;;;23.65;15.30;;;5.30;71.90;;;;;;5010772;28;20053;-73
2020/12/18 09:18:08;;;;;;;25.27;16.48;;;5.30;72.30;;;;;;5011614;28;20073;-72
2020/12/18 09:20:37;;;;;;;25.17;17.17;;;5.30;72.00;;;;;;5009854;28;20443;-72
2020/12/18 09:23:07;;;;;;;27.08;17.30;;;5.30;72.60;;;;;;5008256;28;20064;-73
2020/12/18 09:25:39;;;;;;;25.45;15.80;;;5.20;72.20;;;;;;5008543;28;20066;-72
2020/12/18 09:28:11;;;;;;;27.92;15.77;;;4.90;67.90;;;;;;5005027;28;20133;-72
2020/12/18 09:30:39;;;;;;;21.70;15.13;;;4.80;68.20;;;;;;5008545;28;20427;-73
2020/12/18 09:33:11;;;;;;;26.23;15.60;;;4.90;71.80;;;;;;5011695;28;20212;-72
2020/12/18 09:35:41;;;;;;;26.20;15.93;;;5.10;74.40;;;;;;5002867;28;20057;-71
2020/12/18 09:38:09;;;;;;;19.90;13.68;;;4.80;68.60;;;;;;5011545;28;20054;-73
2020/12/18 09:40:36;;;;;;;23.42;14.82;;;4.50;67.50;;;;;;5011599;28;20048;-73
2020/12/18 09:43:03;;;;;;;19.77;14.63;;;4.30;67.90;;;;;;5011176;28;20053;-71
2020/12/18 09:45:42;;;;;;;20.92;14.48;;;4.40;69.80;;;;;;5008407;28;20104;-71
2020/12/18 09:48:09;;;;;;;25.23;15.88;;;4.30;70.40;;;;;;5011715;28;20064;-72
2020/12/18 09:50:36;;;;;;;23.73;15.48;;;4.40;72.10;;;;;;5011573;28;20080;-72
2020/12/18 09:53:04;;;;;;;22.98;16.42;;;4.50;72.70;;;;;;5011549;28;20052;-71
2020/12/18 09:55:31;;;;;;;25.75;16.80;;;4.50;72.50;;;;;;5013797;28;20050;-71
2020/12/18 09:57:58;;;;;;;26.98;16.80;;;4.60;73.20;;;;;;5015163;28;20643;-71
2020/12/18 10:00:24;;;;;;;26.85;17.30;;;4.60;73.10;;;;;;5015097;28;20517;-70
2020/12/18 10:02:51;;;;;;;31.52;17.45;;;4.60;73.40;;;;;;5015172;28;20411;-73
2020/12/18 10:05:19;;;;;;;27.08;17.63;;;4.70;74.00;;;;;;5012377;28;20046;-71
2020/12/18 10:07:46;;;;;;;25.50;17.65;;;4.80;73.60;;;;;;5013315;28;20050;-74
2020/12/18 10:10:13;;;;;;;29.88;18.15;;;5.00;72.50;;;;;;5014703;28;20088;-74
2020/12/18 10:12:40;;;;;;;24.33;16.85;;;5.10;71.40;;;;;;5014390;28;20085;-72
2020/12/18 10:15:07;;;;;;;26.73;18.17;;;5.10;69.40;;;;;;5013428;28;20186;-71
2020/12/18 10:17:34;;;;;;;25.88;18.42;;;5.30;69.50;;;;;;5014161;28;20058;-75
2020/12/18 10:20:01;;;;;;;28.17;19.83;;;5.40;69.20;;;;;;5014390;28;20041;-72
2020/12/18 10:22:29;;;;;;;27.60;18.65;;;5.60;67.90;;;;;;5012951;28;20046;-74
2020/12/18 10:24:55;;;;;;;28.63;18.48;;;5.90;67.10;;;;;;5013386;28;20060;-73
2020/12/18 10:27:22;;;;;;;24.02;17.13;;;6.10;64.80;;;;;;5013744;28;20041;-73
2020/12/18 10:29:49;;;;;;;25.48;16.90;;;6.20;63.20;;;;;;5012572;28;20062;-73
2020/12/18 10:32:16;;;;;;;23.45;16.83;;;6.40;60.60;;;;;;5014185;28;20083;-74
2020/12/18 10:34:43;;;;;;;25.02;17.23;;;6.70;59.70;;;;;;5013541;28;20046;-73
2020/12/18 10:37:10;;;;;;;21.40;14.90;;;7.00;59.80;;;;;;5012523;28;20420;-73
2020/12/18 10:39:38;;;;;;;19.40;14.00;;;7.20;58.10;;;;;;5013965;28;20056;-71
2020/12/18 10:42:06;;;;;;;21.42;14.88;;;7.30;56.20;;;;;;5013672;28;20137;-72
2020/12/18 10:44:32;;;;;;;22.67;13.32;;;7.50;54.60;;;;;;5013476;28;20042;-71
2020/12/18 10:46:59;;;;;;;17.75;13.80;;;7.50;53.70;;;;;;5012146;28;20045;-72
2020/12/18 10:49:27;;;;;;;19.48;13.68;;;7.60;54.00;;;;;;5013351;28;20133;-73
2020/12/18 10:51:54;;;;;;;19.50;13.80;;;7.50;53.70;;;;;;5013224;28;20042;-73
2020/12/18 10:54:21;;;;;;;20.88;14.15;;;7.60;53.70;;;;;;5011814;28;20053;-73
2020/12/18 10:56:50;;;;;;;18.80;13.60;;;7.60;53.90;;;;;;5012292;28;20648;-77
2020/12/18 10:59:17;;;;;;;21.90;14.45;;;7.70;52.60;;;;;;5014272;28;20053;-78
2020/12/18 11:01:44;;;;;;;19.77;14.65;;;7.70;52.20;;;;;;5011618;28;20563;-75
2020/12/18 11:04:11;;;;;;;17.75;13.48;;;7.80;52.60;;;;;;5012883;28;20122;-73
2020/12/18 11:06:39;;;;;;;18.75;12.98;;;7.80;52.10;;;;;;5011037;28;20053;-74
2020/12/18 11:09:06;;;;;;;17.15;12.88;;;7.80;51.60;;;;;;5012097;28;20100;-75
2020/12/18 11:11:33;;;;;;;20.70;14.35;;;7.90;51.20;;;;;;5014178;28;20464;-72
2020/12/18 11:14:01;;;;;;;19.75;13.60;;;7.90;51.00;;;;;;5014034;28;20048;-71
2020/12/18 11:16:28;;;;;;;18.42;13.43;;;8.00;49.90;;;;;;5010991;28;20064;-71
2020/12/18 11:18:55;;;;;;;20.42;12.95;;;8.00;49.50;;;;;;5013751;28;20056;-72
2020/12/18 11:21:22;;;;;;;19.08;13.18;;;8.00;49.50;;;;;;5013924;28;20056;-72
2020/12/18 11:23:48;;;;;;;21.02;14.30;;;8.00;48.90;;;;;;5013829;28;20132;-74
2020/12/18 11:26:15;;;;;;;17.17;12.27;;;8.10;48.90;;;;;;5013069;28;20049;-72
2020/12/18 11:28:42;;;;;;;22.55;13.48;;;8.10;48.90;;;;;;5013299;28;20089;-73
2020/12/18 11:31:10;;;;;;;19.90;13.00;;;8.20;48.90;;;;;;5012636;28;20052;-73
2020/12/18 11:33:37;;;;;;;17.13;13.00;;;8.20;47.60;;;;;;5011782;28;20092;-73
2020/12/18 11:36:04;;;;;;;32.58;20.88;;;8.20;47.10;;;;;;5009893;28;20498;-74
2020/12/18 11:38:31;;;;;;;19.50;13.55;;;8.40;46.50;;;;;;5011259;28;20062;-74
2020/12/18 11:40:58;;;;;;;20.58;13.80;;;8.40;45.70;;;;;;5011575;28;20176;-72
2020/12/18 11:43:25;;;;;;;20.92;15.27;;;8.40;46.20;;;;;;5010695;28;20464;-73
2020/12/18 11:45:52;;;;;;;18.60;13.93;;;8.50;45.90;;;;;;4993585;28;20057;-74
2020/12/18 11:48:20;;;;;;;22.55;14.63;;;8.40;46.20;;;;;;5006094;28;20155;-72
2020/12/18 11:50:47;;;;;;;19.98;14.07;;;8.40;45.90;;;;;;5011619;28;20053;-73
2020/12/18 11:53:14;;;;;;;21.30;14.48;;;8.40;45.90;;;;;;5009279;28;20093;-72
2020/12/18 11:55:41;;;;;;;19.83;13.95;;;8.50;45.40;;;;;;5008746;28;20050;-73
2020/12/18 11:58:07;;;;;;;19.80;14.60;;;8.60;45.00;;;;;;5009283;28;20089;-73
2020/12/18 12:00:34;;;;;;;20.95;14.15;;;8.60;45.10;;;;;;5012913;28;20057;-73
2020/12/18 12:03:01;;;;;;;16.52;12.30;;;8.70;44.30;;;;;;5012702;28;20050;-73
2020/12/18 12:05:30;;;;;;;25.20;14.15;;;8.70;43.40;;;;;;5008037;28;20058;-73
2020/12/18 12:07:57;;;;;;;17.10;13.20;;;8.70;44.00;;;;;;5006194;28;20042;-73
2020/12/18 12:10:24;;;;;;;16.13;12.70;;;8.80;43.70;;;;;;5010592;28;20042;-73
2020/12/18 12:12:50;;;;;;;19.60;13.15;;;8.90;43.10;;;;;;5011080;28;20132;-73
2020/12/18 12:15:17;;;;;;;16.70;13.18;;;8.90;42.20;;;;;;5012630;28;20720;-73
2020/12/18 12:17:45;;;;;;;18.63;13.10;;;8.90;42.40;;;;;;5006661;28;20049;-72
2020/12/18 12:20:12;;;;;;;18.08;12.63;;;9.00;41.40;;;;;;5015094;28;20057;-72
2020/12/18 12:22:40;;;;;;;17.33;12.38;;;9.00;41.40;;;;;;5015830;28;20088;-71
2020/12/18 12:25:07;;;;;;;18.27;13.35;;;9.00;40.90;;;;;;5009467;28;20061;-75
2020/12/18 12:27:34;;;;;;;18.98;12.05;;;9.10;41.10;;;;;;5004846;28;20502;-73
2020/12/18 12:30:02;;;;;;;23.00;13.82;;;9.10;40.10;;;;;;5015460;28;20574;-74
2020/12/18 12:32:29;;;;;;;16.48;12.63;;;9.10;39.70;;;;;;5018169;28;20136;-74
2020/12/18 12:34:56;;;;;;;18.02;12.63;;;9.30;38.40;;;;;;5009687;28;20049;-73
2020/12/18 12:37:23;;;;;;;16.55;12.95;;;9.30;37.90;;;;;;5002349;28;20050;-73
2020/12/18 12:39:51;;;;;;;16.27;12.02;;;9.40;38.60;;;;;;5014342;28;20053;-72
2020/12/18 12:42:18;;;;;;;16.73;12.40;;;9.40;38.20;;;;;;5012910;28;20057;-72
2020/12/18 12:44:45;;;;;;;16.70;12.30;;;9.40;37.70;;;;;;5012204;28;20050;-72